sensor_id;sensor_type;location;lat;lon;timestamp;temperature;humidity
37426;DHT22;23285;50.180;7.036;2022-11-15T00:08:12;11.20;99.90
37426;DHT22;23285;50.180;7.036;2022-11-15T00:11:16;11.30;99.90
37426;DHT22;23285;50.180;7.036;2022-11-15T00:17:24;11.40;99.90
37426;DHT22;23285;50.180;7.036;2022-11-15T00:20:28;11.50;99.90
37426;DHT22;23285;50.180;7.036;2022-11-15T00:26:37;11.80;99.90
37426;DHT22;23285;50.180;7.036;2022-11-15T00:29:40;11.50;99.90
37426;DHT22;23285;50.180;7.036;2022-11-15T00:32:46;11.70;99.90
37426;DHT22;23285;50.180;7.036;2022-11-15T00:35:50;11.90;99.90
37426;DHT22;23285;50.180;7.036;2022-11-15T00:38:54;11.90;99.90
37426;DHT22;23285;50.180;7.036;2022-11-15T00:41:58;11.90;99.90
37426;DHT22;23285;50.180;7.036;2022-11-15T00:45:01;11.90;99.90
37426;DHT22;23285;50.180;7.036;2022-11-15T00:48:05;12.30;99.90
37426;DHT22;23285;50.180;7.036;2022-11-15T00:51:09;12.40;99.90
37426;DHT22;23285;50.180;7.036;2022-11-15T00:57:17;12.30;99.90
37426;DHT22;23285;50.180;7.036;2022-11-15T01:00:20;12.50;99.90
37426;DHT22;23285;50.180;7.036;2022-11-15T01:03:25;12.50;99.90
37426;DHT22;23285;50.180;7.036;2022-11-15T01:06:29;12.60;99.90
37426;DHT22;23285;50.180;7.036;2022-11-15T01:12:36;12.00;99.90
37426;DHT22;23285;50.180;7.036;2022-11-15T01:15:41;11.80;99.90
37426;DHT22;23285;50.180;7.036;2022-11-15T01:18:45;11.80;99.90
37426;DHT22;23285;50.180;7.036;2022-11-15T01:21:50;11.70;99.90
37426;DHT22;23285;50.180;7.036;2022-11-15T01:24:53;11.70;99.90
37426;DHT22;23285;50.180;7.036;2022-11-15T01:31:03;11.80;99.90
37426;DHT22;23285;50.180;7.036;2022-11-15T01:40:14;12.10;99.90
37426;DHT22;23285;50.180;7.036;2022-11-15T01:43:38;12.20;99.90
37426;DHT22;23285;50.180;7.036;2022-11-15T01:46:46;12.10;99.90
37426;DHT22;23285;50.180;7.036;2022-11-15T01:56:05;12.20;99.90
37426;DHT22;23285;50.180;7.036;2022-11-15T01:59:09;12.10;99.90
37426;DHT22;23285;50.180;7.036;2022-11-15T02:02:14;12.10;99.90
37426;DHT22;23285;50.180;7.036;2022-11-15T02:05:19;11.90;99.90
37426;DHT22;23285;50.180;7.036;2022-11-15T02:14:31;11.80;99.90
37426;DHT22;23285;50.180;7.036;2022-11-15T02:18:00;11.70;99.90
37426;DHT22;23285;50.180;7.036;2022-11-15T02:21:23;11.50;99.90
37426;DHT22;23285;50.180;7.036;2022-11-15T02:34:57;11.40;99.90
37426;DHT22;23285;50.180;7.036;2022-11-15T02:38:22;11.60;99.90
37426;DHT22;23285;50.180;7.036;2022-11-15T02:41:52;11.50;99.90
37426;DHT22;23285;50.180;7.036;2022-11-15T02:44:58;11.40;99.90
37426;DHT22;23285;50.180;7.036;2022-11-15T02:48:07;11.30;99.90
37426;DHT22;23285;50.180;7.036;2022-11-15T02:54:22;11.20;99.90
37426;DHT22;23285;50.180;7.036;2022-11-15T03:00:48;11.20;99.90
37426;DHT22;23285;50.180;7.036;2022-11-15T03:07:07;11.20;99.90
37426;DHT22;23285;50.180;7.036;2022-11-15T03:10:18;11.20;99.90
37426;DHT22;23285;50.180;7.036;2022-11-15T03:13:25;11.30;99.90
37426;DHT22;23285;50.180;7.036;2022-11-15T03:19:47;11.40;99.90
37426;DHT22;23285;50.180;7.036;2022-11-15T03:22:50;11.30;99.90
37426;DHT22;23285;50.180;7.036;2022-11-15T03:25:56;11.30;99.90
37426;DHT22;23285;50.180;7.036;2022-11-15T03:29:08;11.20;99.90
37426;DHT22;23285;50.180;7.036;2022-11-15T03:32:18;11.20;99.90
37426;DHT22;23285;50.180;7.036;2022-11-15T03:38:31;11.40;99.90
37426;DHT22;23285;50.180;7.036;2022-11-15T03:41:39;11.40;99.90
37426;DHT22;23285;50.180;7.036;2022-11-15T03:48:22;11.50;99.90
37426;DHT22;23285;50.180;7.036;2022-11-15T03:51:29;11.50;99.90
37426;DHT22;23285;50.180;7.036;2022-11-15T03:54:33;11.40;99.90
37426;DHT22;23285;50.180;7.036;2022-11-15T03:57:37;11.40;99.90
37426;DHT22;23285;50.180;7.036;2022-11-15T04:00:41;11.40;99.90
37426;DHT22;23285;50.180;7.036;2022-11-15T04:03:44;11.40;99.90
37426;DHT22;23285;50.180;7.036;2022-11-15T04:06:48;11.40;99.90
37426;DHT22;23285;50.180;7.036;2022-11-15T04:19:12;11.20;99.90
37426;DHT22;23285;50.180;7.036;2022-11-15T04:29:03;11.20;99.90
37426;DHT22;23285;50.180;7.036;2022-11-15T04:32:25;11.20;99.90
37426;DHT22;23285;50.180;7.036;2022-11-15T04:35:29;11.30;99.90
37426;DHT22;23285;50.180;7.036;2022-11-15T04:41:37;11.20;99.90
37426;DHT22;23285;50.180;7.036;2022-11-15T04:44:41;11.20;99.90
37426;DHT22;23285;50.180;7.036;2022-11-15T04:47:45;11.10;99.90
37426;DHT22;23285;50.180;7.036;2022-11-15T04:50:49;11.40;99.90
37426;DHT22;23285;50.180;7.036;2022-11-15T04:56:57;11.20;99.90
37426;DHT22;23285;50.180;7.036;2022-11-15T05:00:06;11.20;99.90
37426;DHT22;23285;50.180;7.036;2022-11-15T05:03:10;11.00;99.90
37426;DHT22;23285;50.180;7.036;2022-11-15T05:06:32;10.90;99.90
37426;DHT22;23285;50.180;7.036;2022-11-15T05:09:36;11.00;99.90
37426;DHT22;23285;50.180;7.036;2022-11-15T05:12:40;11.10;99.90
37426;DHT22;23285;50.180;7.036;2022-11-15T05:15:44;11.20;99.90
37426;DHT22;23285;50.180;7.036;2022-11-15T05:21:55;11.30;99.90
37426;DHT22;23285;50.180;7.036;2022-11-15T05:28:03;11.20;99.90
37426;DHT22;23285;50.180;7.036;2022-11-15T05:31:12;11.30;99.90
37426;DHT22;23285;50.180;7.036;2022-11-15T05:34:16;11.40;99.90
37426;DHT22;23285;50.180;7.036;2022-11-15T05:43:31;11.30;99.90
37426;DHT22;23285;50.180;7.036;2022-11-15T05:46:37;11.40;99.90
37426;DHT22;23285;50.180;7.036;2022-11-15T05:58:56;11.20;99.90
37426;DHT22;23285;50.180;7.036;2022-11-15T06:02:01;11.20;99.90
37426;DHT22;23285;50.180;7.036;2022-11-15T06:05:04;11.30;99.90
37426;DHT22;23285;50.180;7.036;2022-11-15T06:08:08;11.30;99.90
37426;DHT22;23285;50.180;7.036;2022-11-15T06:14:16;11.00;99.90
37426;DHT22;23285;50.180;7.036;2022-11-15T06:17:20;11.20;99.90
37426;DHT22;23285;50.180;7.036;2022-11-15T06:23:33;11.20;99.90
37426;DHT22;23285;50.180;7.036;2022-11-15T06:26:37;11.10;99.90
37426;DHT22;23285;50.180;7.036;2022-11-15T06:29:41;11.10;99.90
37426;DHT22;23285;50.180;7.036;2022-11-15T06:32:45;11.20;99.90
37426;DHT22;23285;50.180;7.036;2022-11-15T06:35:48;11.30;99.90
37426;DHT22;23285;50.180;7.036;2022-11-15T06:38:52;11.40;99.90
37426;DHT22;23285;50.180;7.036;2022-11-15T06:41:55;11.20;99.90
37426;DHT22;23285;50.180;7.036;2022-11-15T06:54:12;11.50;99.90
37426;DHT22;23285;50.180;7.036;2022-11-15T06:57:15;11.30;99.90
37426;DHT22;23285;50.180;7.036;2022-11-15T07:03:24;11.30;99.90
37426;DHT22;23285;50.180;7.036;2022-11-15T07:06:27;11.20;99.90
37426;DHT22;23285;50.180;7.036;2022-11-15T07:09:31;11.10;99.90
37426;DHT22;23285;50.180;7.036;2022-11-15T07:15:40;10.70;99.90
37426;DHT22;23285;50.180;7.036;2022-11-15T07:18:43;10.90;99.90
37426;DHT22;23285;50.180;7.036;2022-11-15T07:21:47;10.90;99.90
37426;DHT22;23285;50.180;7.036;2022-11-15T07:27:59;11.20;99.90
37426;DHT22;23285;50.180;7.036;2022-11-15T07:31:05;11.10;99.90
37426;DHT22;23285;50.180;7.036;2022-11-15T07:34:09;11.30;99.90
37426;DHT22;23285;50.180;7.036;2022-11-15T07:40:16;10.90;99.90
37426;DHT22;23285;50.180;7.036;2022-11-15T07:43:20;10.90;99.90
37426;DHT22;23285;50.180;7.036;2022-11-15T07:46:24;10.80;99.90
37426;DHT22;23285;50.180;7.036;2022-11-15T07:49:28;10.80;99.90
37426;DHT22;23285;50.180;7.036;2022-11-15T07:52:31;10.90;99.90
37426;DHT22;23285;50.180;7.036;2022-11-15T07:55:35;10.60;99.90
37426;DHT22;23285;50.180;7.036;2022-11-15T08:04:46;10.70;99.90
37426;DHT22;23285;50.180;7.036;2022-11-15T08:10:54;11.00;99.90
37426;DHT22;23285;50.180;7.036;2022-11-15T08:13:58;11.00;99.90
37426;DHT22;23285;50.180;7.036;2022-11-15T08:17:02;10.90;99.90
37426;DHT22;23285;50.180;7.036;2022-11-15T08:20:05;11.10;99.90
37426;DHT22;23285;50.180;7.036;2022-11-15T08:26:17;11.20;99.90
37426;DHT22;23285;50.180;7.036;2022-11-15T08:29:20;10.90;99.90
37426;DHT22;23285;50.180;7.036;2022-11-15T08:41:37;11.20;99.90
37426;DHT22;23285;50.180;7.036;2022-11-15T08:47:44;11.20;99.90
37426;DHT22;23285;50.180;7.036;2022-11-15T08:50:53;11.30;99.90
37426;DHT22;23285;50.180;7.036;2022-11-15T08:53:58;11.00;99.90
37426;DHT22;23285;50.180;7.036;2022-11-15T08:57:02;11.10;99.90
37426;DHT22;23285;50.180;7.036;2022-11-15T09:00:06;11.20;99.90
37426;DHT22;23285;50.180;7.036;2022-11-15T09:06:14;11.30;99.90
37426;DHT22;23285;50.180;7.036;2022-11-15T09:09:18;11.30;99.90
37426;DHT22;23285;50.180;7.036;2022-11-15T09:12:21;11.20;99.90
37426;DHT22;23285;50.180;7.036;2022-11-15T09:15:24;11.20;99.90
37426;DHT22;23285;50.180;7.036;2022-11-15T09:18:29;11.00;99.90
37426;DHT22;23285;50.180;7.036;2022-11-15T09:21:33;11.20;99.90
37426;DHT22;23285;50.180;7.036;2022-11-15T09:24:37;11.20;99.90
37426;DHT22;23285;50.180;7.036;2022-11-15T09:27:41;11.40;99.90
37426;DHT22;23285;50.180;7.036;2022-11-15T09:33:48;11.30;99.90
37426;DHT22;23285;50.180;7.036;2022-11-15T09:39:55;11.20;99.90
37426;DHT22;23285;50.180;7.036;2022-11-15T09:43:25;11.40;99.90
37426;DHT22;23285;50.180;7.036;2022-11-15T09:50:10;11.60;99.90
37426;DHT22;23285;50.180;7.036;2022-11-15T09:55:59;11.70;99.90
37426;DHT22;23285;50.180;7.036;2022-11-15T10:04:39;12.60;99.90
37426;DHT22;23285;50.180;7.036;2022-11-15T10:07:37;12.90;99.90
37426;DHT22;23285;50.180;7.036;2022-11-15T10:28:25;13.10;99.90
37426;DHT22;23285;50.180;7.036;2022-11-15T10:31:30;13.00;99.90
37426;DHT22;23285;50.180;7.036;2022-11-15T10:43:03;13.00;99.90
37426;DHT22;23285;50.180;7.036;2022-11-15T10:48:35;13.30;99.90
37426;DHT22;23285;50.180;7.036;2022-11-15T10:51:27;13.40;99.90
37426;DHT22;23285;50.180;7.036;2022-11-15T10:54:20;13.50;99.90
37426;DHT22;23285;50.180;7.036;2022-11-15T11:00:44;13.50;99.90
37426;DHT22;23285;50.180;7.036;2022-11-15T11:06:13;13.40;99.90
37426;DHT22;23285;50.180;7.036;2022-11-15T11:09:04;13.50;99.90
37426;DHT22;23285;50.180;7.036;2022-11-15T11:11:51;13.60;99.90
37426;DHT22;23285;50.180;7.036;2022-11-15T11:14:38;13.30;99.90
37426;DHT22;23285;50.180;7.036;2022-11-15T11:23:38;14.10;99.90
37426;DHT22;23285;50.180;7.036;2022-11-15T11:32:43;14.80;99.90
37426;DHT22;23285;50.180;7.036;2022-11-15T11:38:49;14.70;99.90
37426;DHT22;23285;50.180;7.036;2022-11-15T11:41:59;14.70;99.90
37426;DHT22;23285;50.180;7.036;2022-11-15T11:48:09;14.70;99.90
37426;DHT22;23285;50.180;7.036;2022-11-15T11:51:47;14.40;99.90
37426;DHT22;23285;50.180;7.036;2022-11-15T11:58:03;14.00;99.90
37426;DHT22;23285;50.180;7.036;2022-11-15T12:00:56;14.20;99.90
37426;DHT22;23285;50.180;7.036;2022-11-15T12:03:48;14.20;99.90
37426;DHT22;23285;50.180;7.036;2022-11-15T12:12:30;14.80;99.90
37426;DHT22;23285;50.180;7.036;2022-11-15T12:15:20;14.90;99.90
37426;DHT22;23285;50.180;7.036;2022-11-15T12:18:12;14.50;99.90
37426;DHT22;23285;50.180;7.036;2022-11-15T12:21:08;14.60;99.90
37426;DHT22;23285;50.180;7.036;2022-11-15T12:24:02;14.80;99.90
37426;DHT22;23285;50.180;7.036;2022-11-15T12:27:14;15.10;99.90
37426;DHT22;23285;50.180;7.036;2022-11-15T12:33:03;15.10;99.90
37426;DHT22;23285;50.180;7.036;2022-11-15T12:36:43;15.20;99.90
37426;DHT22;23285;50.180;7.036;2022-11-15T12:39:07;15.50;99.90
37426;DHT22;23285;50.180;7.036;2022-11-15T12:58:58;15.60;99.90
37426;DHT22;23285;50.180;7.036;2022-11-15T13:04:29;15.90;99.90
37426;DHT22;23285;50.180;7.036;2022-11-15T13:13:42;15.20;99.90
37426;DHT22;23285;50.180;7.036;2022-11-15T13:16:27;14.60;99.90
37426;DHT22;23285;50.180;7.036;2022-11-15T13:19:14;14.60;99.90
37426;DHT22;23285;50.180;7.036;2022-11-15T13:25:04;14.70;99.90
37426;DHT22;23285;50.180;7.036;2022-11-15T13:33:39;15.00;99.90
37426;DHT22;23285;50.180;7.036;2022-11-15T13:45:14;14.90;99.90
37426;DHT22;23285;50.180;7.036;2022-11-15T13:48:03;15.20;99.90
37426;DHT22;23285;50.180;7.036;2022-11-15T13:50:48;15.20;99.90
37426;DHT22;23285;50.180;7.036;2022-11-15T13:53:34;15.30;99.90
37426;DHT22;23285;50.180;7.036;2022-11-15T14:02:15;15.00;99.90
37426;DHT22;23285;50.180;7.036;2022-11-15T14:05:13;15.00;99.90
37426;DHT22;23285;50.180;7.036;2022-11-15T14:08:04;15.00;99.90
37426;DHT22;23285;50.180;7.036;2022-11-15T14:11:17;15.30;99.90
37426;DHT22;23285;50.180;7.036;2022-11-15T14:19:40;15.60;99.90
37426;DHT22;23285;50.180;7.036;2022-11-15T14:22:27;15.60;99.90
37426;DHT22;23285;50.180;7.036;2022-11-15T14:28:26;15.20;99.90
37426;DHT22;23285;50.180;7.036;2022-11-15T14:31:13;15.30;99.90
37426;DHT22;23285;50.180;7.036;2022-11-15T14:33:58;15.20;99.90
37426;DHT22;23285;50.180;7.036;2022-11-15T14:42:14;15.50;99.90
37426;DHT22;23285;50.180;7.036;2022-11-15T14:50:32;15.60;99.90
37426;DHT22;23285;50.180;7.036;2022-11-15T14:53:17;15.70;99.90
37426;DHT22;23285;50.180;7.036;2022-11-15T14:56:03;15.60;99.90
37426;DHT22;23285;50.180;7.036;2022-11-15T14:58:49;15.80;99.90
37426;DHT22;23285;50.180;7.036;2022-11-15T15:01:34;15.80;99.90
37426;DHT22;23285;50.180;7.036;2022-11-15T15:07:04;15.50;99.90
37426;DHT22;23285;50.180;7.036;2022-11-15T15:09:49;15.50;99.90
37426;DHT22;23285;50.180;7.036;2022-11-15T15:12:34;15.40;99.90
37426;DHT22;23285;50.180;7.036;2022-11-15T15:15:25;15.40;99.90
37426;DHT22;23285;50.180;7.036;2022-11-15T15:20:57;15.10;99.90
37426;DHT22;23285;50.180;7.036;2022-11-15T15:23:52;15.20;99.90
37426;DHT22;23285;50.180;7.036;2022-11-15T15:26:38;14.90;99.90
37426;DHT22;23285;50.180;7.036;2022-11-15T15:29:23;15.00;99.90
37426;DHT22;23285;50.180;7.036;2022-11-15T15:32:09;14.80;99.90
37426;DHT22;23285;50.180;7.036;2022-11-15T15:34:55;14.70;99.90
37426;DHT22;23285;50.180;7.036;2022-11-15T15:37:41;14.50;99.90
37426;DHT22;23285;50.180;7.036;2022-11-15T15:40:28;14.40;99.90
37426;DHT22;23285;50.180;7.036;2022-11-15T15:45:59;14.40;99.90
37426;DHT22;23285;50.180;7.036;2022-11-15T15:48:44;14.20;99.90
37426;DHT22;23285;50.180;7.036;2022-11-15T15:51:29;14.00;99.90
37426;DHT22;23285;50.180;7.036;2022-11-15T15:54:14;14.00;99.90
37426;DHT22;23285;50.180;7.036;2022-11-15T15:56:59;13.90;99.90
37426;DHT22;23285;50.180;7.036;2022-11-15T15:59:45;13.80;99.90
37426;DHT22;23285;50.180;7.036;2022-11-15T16:02:30;13.90;99.90
37426;DHT22;23285;50.180;7.036;2022-11-15T16:08:00;13.80;99.90
37426;DHT22;23285;50.180;7.036;2022-11-15T16:10:46;13.70;99.90
37426;DHT22;23285;50.180;7.036;2022-11-15T16:13:31;13.90;99.90
37426;DHT22;23285;50.180;7.036;2022-11-15T16:16:16;13.80;99.90
37426;DHT22;23285;50.180;7.036;2022-11-15T16:19:03;13.90;99.90
37426;DHT22;23285;50.180;7.036;2022-11-15T16:21:48;13.70;99.90
37426;DHT22;23285;50.180;7.036;2022-11-15T16:24:34;13.70;99.90
37426;DHT22;23285;50.180;7.036;2022-11-15T16:27:19;13.70;99.90
37426;DHT22;23285;50.180;7.036;2022-11-15T16:30:07;13.70;99.90
37426;DHT22;23285;50.180;7.036;2022-11-15T16:32:55;13.80;99.90
37426;DHT22;23285;50.180;7.036;2022-11-15T16:35:40;13.90;99.90
37426;DHT22;23285;50.180;7.036;2022-11-15T16:38:25;14.00;99.90
37426;DHT22;23285;50.180;7.036;2022-11-15T16:41:10;13.90;99.90
37426;DHT22;23285;50.180;7.036;2022-11-15T16:43:55;14.00;99.90
37426;DHT22;23285;50.180;7.036;2022-11-15T16:46:42;14.00;99.90
37426;DHT22;23285;50.180;7.036;2022-11-15T16:49:27;14.20;99.90
37426;DHT22;23285;50.180;7.036;2022-11-15T16:54:57;14.10;99.90
37426;DHT22;23285;50.180;7.036;2022-11-15T16:57:42;14.20;99.90
37426;DHT22;23285;50.180;7.036;2022-11-15T17:00:27;14.20;99.90
37426;DHT22;23285;50.180;7.036;2022-11-15T17:03:12;14.10;99.90
37426;DHT22;23285;50.180;7.036;2022-11-15T17:05:57;14.00;99.90
37426;DHT22;23285;50.180;7.036;2022-11-15T17:08:44;14.20;99.90
37426;DHT22;23285;50.180;7.036;2022-11-15T17:11:29;14.10;99.90
37426;DHT22;23285;50.180;7.036;2022-11-15T17:14:15;14.20;99.90
37426;DHT22;23285;50.180;7.036;2022-11-15T17:22:30;14.30;99.90
37426;DHT22;23285;50.180;7.036;2022-11-15T17:25:16;14.50;99.90
37426;DHT22;23285;50.180;7.036;2022-11-15T17:28:01;14.50;99.90
37426;DHT22;23285;50.180;7.036;2022-11-15T17:30:46;14.40;99.90
37426;DHT22;23285;50.180;7.036;2022-11-15T17:33:31;14.40;99.90
37426;DHT22;23285;50.180;7.036;2022-11-15T17:36:16;14.50;99.90
37426;DHT22;23285;50.180;7.036;2022-11-15T17:41:46;14.20;99.90
37426;DHT22;23285;50.180;7.036;2022-11-15T17:44:31;14.10;99.90
37426;DHT22;23285;50.180;7.036;2022-11-15T17:47:17;14.00;99.90
37426;DHT22;23285;50.180;7.036;2022-11-15T17:50:02;14.00;99.90
37426;DHT22;23285;50.180;7.036;2022-11-15T17:52:47;14.20;99.90
37426;DHT22;23285;50.180;7.036;2022-11-15T17:55:32;14.00;99.90
37426;DHT22;23285;50.180;7.036;2022-11-15T17:58:17;13.90;99.90
37426;DHT22;23285;50.180;7.036;2022-11-15T18:01:13;13.50;99.90
37426;DHT22;23285;50.180;7.036;2022-11-15T18:04:01;13.60;99.90
37426;DHT22;23285;50.180;7.036;2022-11-15T18:06:47;13.60;99.90
37426;DHT22;23285;50.180;7.036;2022-11-15T18:12:18;13.80;99.90
37426;DHT22;23285;50.180;7.036;2022-11-15T18:15:03;13.90;99.90
37426;DHT22;23285;50.180;7.036;2022-11-15T18:17:48;13.90;99.90
37426;DHT22;23285;50.180;7.036;2022-11-15T18:20:33;13.90;99.90
37426;DHT22;23285;50.180;7.036;2022-11-15T18:23:18;13.90;99.90
37426;DHT22;23285;50.180;7.036;2022-11-15T18:28:49;13.70;99.90
37426;DHT22;23285;50.180;7.036;2022-11-15T18:31:34;14.00;99.90
37426;DHT22;23285;50.180;7.036;2022-11-15T18:34:21;14.00;99.90
37426;DHT22;23285;50.180;7.036;2022-11-15T18:37:07;13.90;99.90
37426;DHT22;23285;50.180;7.036;2022-11-15T18:39:52;13.90;99.90
37426;DHT22;23285;50.180;7.036;2022-11-15T18:42:37;13.90;99.90
37426;DHT22;23285;50.180;7.036;2022-11-15T18:45:23;14.10;99.90
37426;DHT22;23285;50.180;7.036;2022-11-15T18:51:02;13.80;99.90
37426;DHT22;23285;50.180;7.036;2022-11-15T18:53:47;13.90;99.90
37426;DHT22;23285;50.180;7.036;2022-11-15T18:56:33;14.00;99.90
37426;DHT22;23285;50.180;7.036;2022-11-15T18:59:18;14.10;99.90
37426;DHT22;23285;50.180;7.036;2022-11-15T19:02:03;14.10;99.90
37426;DHT22;23285;50.180;7.036;2022-11-15T19:07:34;14.10;99.90
37426;DHT22;23285;50.180;7.036;2022-11-15T19:10:20;14.00;99.90
37426;DHT22;23285;50.180;7.036;2022-11-15T19:13:05;14.00;99.90
37426;DHT22;23285;50.180;7.036;2022-11-15T19:15:59;14.00;99.90
37426;DHT22;23285;50.180;7.036;2022-11-15T19:18:44;14.00;99.90
37426;DHT22;23285;50.180;7.036;2022-11-15T19:21:30;13.90;99.90
37426;DHT22;23285;50.180;7.036;2022-11-15T19:24:15;13.90;99.90
37426;DHT22;23285;50.180;7.036;2022-11-15T19:27:00;13.60;99.90
37426;DHT22;23285;50.180;7.036;2022-11-15T19:33:13;13.90;99.90
37426;DHT22;23285;50.180;7.036;2022-11-15T19:38:47;13.80;99.90
37426;DHT22;23285;50.180;7.036;2022-11-15T19:49:50;13.40;99.90
37426;DHT22;23285;50.180;7.036;2022-11-15T19:52:35;13.40;99.90
37426;DHT22;23285;50.180;7.036;2022-11-15T19:55:20;13.50;99.90
37426;DHT22;23285;50.180;7.036;2022-11-15T19:58:05;13.30;99.90
37426;DHT22;23285;50.180;7.036;2022-11-15T20:00:50;13.30;99.90
37426;DHT22;23285;50.180;7.036;2022-11-15T20:03:35;13.30;99.90
37426;DHT22;23285;50.180;7.036;2022-11-15T20:09:13;13.40;99.90
37426;DHT22;23285;50.180;7.036;2022-11-15T20:14:44;13.20;99.90
37426;DHT22;23285;50.180;7.036;2022-11-15T20:17:30;13.20;99.90
37426;DHT22;23285;50.180;7.036;2022-11-15T20:23:00;13.10;99.90
37426;DHT22;23285;50.180;7.036;2022-11-15T20:25:47;13.00;99.90
37426;DHT22;23285;50.180;7.036;2022-11-15T20:28:32;12.90;99.90
37426;DHT22;23285;50.180;7.036;2022-11-15T20:31:18;12.90;99.90
37426;DHT22;23285;50.180;7.036;2022-11-15T20:34:05;12.90;99.90
37426;DHT22;23285;50.180;7.036;2022-11-15T20:42:21;12.60;99.90
37426;DHT22;23285;50.180;7.036;2022-11-15T20:45:06;12.80;99.90
37426;DHT22;23285;50.180;7.036;2022-11-15T20:50:42;12.80;99.90
37426;DHT22;23285;50.180;7.036;2022-11-15T20:53:27;12.80;99.90
37426;DHT22;23285;50.180;7.036;2022-11-15T20:56:15;12.80;99.90
37426;DHT22;23285;50.180;7.036;2022-11-15T20:59:00;12.60;99.90
37426;DHT22;23285;50.180;7.036;2022-11-15T21:01:45;12.50;99.90
37426;DHT22;23285;50.180;7.036;2022-11-15T21:07:16;12.50;99.90
37426;DHT22;23285;50.180;7.036;2022-11-15T21:10:02;12.60;99.90
37426;DHT22;23285;50.180;7.036;2022-11-15T21:15:53;12.40;99.90
37426;DHT22;23285;50.180;7.036;2022-11-15T21:18:38;12.30;99.90
37426;DHT22;23285;50.180;7.036;2022-11-15T21:21:23;12.20;99.90
37426;DHT22;23285;50.180;7.036;2022-11-15T21:24:09;12.30;99.90
37426;DHT22;23285;50.180;7.036;2022-11-15T21:26:54;12.40;99.90
37426;DHT22;23285;50.180;7.036;2022-11-15T21:29:40;12.50;99.90
37426;DHT22;23285;50.180;7.036;2022-11-15T21:32:29;12.30;99.90
37426;DHT22;23285;50.180;7.036;2022-11-15T21:38:00;12.50;99.90
37426;DHT22;23285;50.180;7.036;2022-11-15T21:40:45;12.30;99.90
37426;DHT22;23285;50.180;7.036;2022-11-15T21:46:15;12.10;99.90
37426;DHT22;23285;50.180;7.036;2022-11-15T21:51:46;12.30;99.90
37426;DHT22;23285;50.180;7.036;2022-11-15T21:54:32;12.10;99.90
37426;DHT22;23285;50.180;7.036;2022-11-15T21:57:17;12.20;99.90
37426;DHT22;23285;50.180;7.036;2022-11-15T22:03:07;12.10;99.90
37426;DHT22;23285;50.180;7.036;2022-11-15T22:05:52;12.40;99.90
37426;DHT22;23285;50.180;7.036;2022-11-15T22:08:37;12.40;99.90
37426;DHT22;23285;50.180;7.036;2022-11-15T22:11:22;12.30;99.90
37426;DHT22;23285;50.180;7.036;2022-11-15T22:16:53;12.40;99.90
37426;DHT22;23285;50.180;7.036;2022-11-15T22:19:38;12.50;99.90
37426;DHT22;23285;50.180;7.036;2022-11-15T22:22:23;12.70;99.90
37426;DHT22;23285;50.180;7.036;2022-11-15T22:27:54;12.60;99.90
37426;DHT22;23285;50.180;7.036;2022-11-15T22:30:39;12.70;99.90
37426;DHT22;23285;50.180;7.036;2022-11-15T22:33:27;12.80;99.90
37426;DHT22;23285;50.180;7.036;2022-11-15T22:38:58;12.90;99.90
37426;DHT22;23285;50.180;7.036;2022-11-15T22:44:29;12.70;99.90
37426;DHT22;23285;50.180;7.036;2022-11-15T22:47:14;12.70;99.90
37426;DHT22;23285;50.180;7.036;2022-11-15T22:55:29;12.90;99.90
37426;DHT22;23285;50.180;7.036;2022-11-15T22:58:14;12.80;99.90
37426;DHT22;23285;50.180;7.036;2022-11-15T23:01:02;12.80;99.90
37426;DHT22;23285;50.180;7.036;2022-11-15T23:03:47;12.70;99.90
37426;DHT22;23285;50.180;7.036;2022-11-15T23:06:33;12.70;99.90
37426;DHT22;23285;50.180;7.036;2022-11-15T23:09:18;12.70;99.90
37426;DHT22;23285;50.180;7.036;2022-11-15T23:12:03;12.70;99.90
37426;DHT22;23285;50.180;7.036;2022-11-15T23:15:07;12.70;99.90
37426;DHT22;23285;50.180;7.036;2022-11-15T23:17:52;12.60;99.90
37426;DHT22;23285;50.180;7.036;2022-11-15T23:20:37;12.50;99.90
37426;DHT22;23285;50.180;7.036;2022-11-15T23:26:08;12.60;99.90
37426;DHT22;23285;50.180;7.036;2022-11-15T23:28:53;12.70;99.90
37426;DHT22;23285;50.180;7.036;2022-11-15T23:31:38;12.90;99.90
37426;DHT22;23285;50.180;7.036;2022-11-15T23:42:59;12.70;99.90
37426;DHT22;23285;50.180;7.036;2022-11-15T23:45:44;12.50;99.90
37426;DHT22;23285;50.180;7.036;2022-11-15T23:48:29;12.40;99.90
37426;DHT22;23285;50.180;7.036;2022-11-15T23:51:14;12.60;99.90
37426;DHT22;23285;50.180;7.036;2022-11-15T23:56:44;12.60;99.90
37426;DHT22;23285;50.180;7.036;2022-11-15T23:59:29;12.70;99.90
